createdAt,value
2018-04-07T00:00:45.411Z,4.13
2018-04-07T00:03:14.140Z,3.87
2018-04-07T00:05:42.677Z,3.50
2018-04-07T00:08:10.656Z,3.53
2018-04-07T00:10:39.244Z,3.40
2018-04-07T00:13:08.753Z,3.23
2018-04-07T00:15:36.652Z,6.43
2018-04-07T00:18:05.344Z,9.40
2018-04-07T00:20:33.679Z,8.53
2018-04-07T00:23:01.582Z,8.97
2018-04-07T00:25:30.482Z,7.70
2018-04-07T00:27:58.493Z,7.07
2018-04-07T00:30:26.324Z,8.27
2018-04-07T00:32:54.226Z,8.87
2018-04-07T00:35:21.990Z,7.03
2018-04-07T00:37:51.201Z,5.27
2018-04-07T00:40:19.238Z,4.20
2018-04-07T00:42:52.707Z,3.97
2018-04-07T00:45:20.743Z,3.63
2018-04-07T00:47:48.955Z,3.70
2018-04-07T00:50:16.736Z,3.07
2018-04-07T00:52:55.718Z,3.57
2018-04-07T00:55:24.763Z,4.00
2018-04-07T00:57:53.021Z,4.33
2018-04-07T01:00:21.054Z,3.60
2018-04-07T01:02:49.638Z,4.07
2018-04-07T01:05:17.433Z,6.93
2018-04-07T01:07:45.162Z,7.10
2018-04-07T01:10:14.807Z,8.03
2018-04-07T01:12:42.725Z,9.13
2018-04-07T01:15:11.223Z,7.80
2018-04-07T01:17:38.953Z,7.83
2018-04-07T01:20:06.758Z,6.80
2018-04-07T01:22:34.513Z,6.57
2018-04-07T01:25:02.543Z,6.10
2018-04-07T01:27:31.063Z,5.63
2018-04-07T01:29:58.875Z,7.13
2018-04-07T01:32:27.370Z,5.83
2018-04-07T01:34:55.195Z,4.90
2018-04-07T01:37:23.175Z,5.60
2018-04-07T01:39:50.890Z,5.43
2018-04-07T01:42:19.122Z,7.73
2018-04-07T01:44:46.910Z,8.97
2018-04-07T01:47:16.065Z,8.40
2018-04-07T01:49:43.954Z,7.43
2018-04-07T01:52:11.697Z,5.90
2018-04-07T01:54:39.466Z,5.90
2018-04-07T01:57:07.855Z,6.13
2018-04-07T01:59:35.758Z,7.10
2018-04-07T02:02:05.219Z,7.57
2018-04-07T02:04:32.997Z,7.50
2018-04-07T02:07:00.730Z,6.33
2018-04-07T02:09:28.465Z,5.87
2018-04-07T02:11:57.117Z,6.40
2018-04-07T02:14:24.834Z,5.07
2018-04-07T02:16:53.307Z,4.90
2018-04-07T02:19:21.842Z,5.27
2018-04-07T02:21:49.511Z,5.00
2018-04-07T02:24:17.321Z,5.93
2018-04-07T02:26:45.750Z,5.50
2018-04-07T02:29:13.430Z,6.50
2018-04-07T02:31:42.688Z,5.63
2018-04-07T02:34:10.373Z,5.57
2018-04-07T02:36:38.873Z,4.17
2018-04-07T02:39:06.632Z,3.70
2018-04-07T02:41:34.331Z,3.23
2018-04-07T02:44:02.072Z,3.53
2018-04-07T02:46:30.554Z,3.80
2018-04-07T02:48:58.262Z,3.80
2018-04-07T02:51:27.059Z,3.10
2018-04-07T02:53:55.542Z,3.87
2018-04-07T02:56:23.353Z,3.57
2018-04-07T02:58:51.056Z,3.90
2018-04-07T03:01:18.750Z,4.73
2018-04-07T03:03:46.511Z,4.57
2018-04-07T03:06:14.250Z,4.13
2018-04-07T03:08:42.773Z,4.40
2018-04-07T03:11:10.504Z,3.80
2018-04-07T03:13:38.239Z,5.17
2018-04-07T03:16:05.964Z,5.33
2018-04-07T03:18:33.690Z,4.90
2018-04-07T03:21:01.462Z,4.30
2018-04-07T03:23:29.141Z,4.17
2018-04-07T03:25:56.857Z,4.07
2018-04-07T03:28:24.638Z,3.90
2018-04-07T03:30:52.320Z,3.47
2018-04-07T03:33:20.046Z,3.63
2018-04-07T03:35:47.724Z,3.00
2018-04-07T03:38:15.419Z,2.83
2018-04-07T03:40:43.888Z,2.47
2018-04-07T03:43:11.598Z,2.43
2018-04-07T03:45:40.894Z,2.70
2018-04-07T03:48:08.705Z,2.93
2018-04-07T03:50:36.441Z,2.73
2018-04-07T03:53:04.882Z,2.57
2018-04-07T03:55:32.540Z,3.47
2018-04-07T03:58:00.307Z,3.43
2018-04-07T04:00:28.826Z,4.30
2018-04-07T04:02:57.342Z,4.20
2018-04-07T04:05:25.907Z,4.63
2018-04-07T04:07:53.590Z,4.40
2018-04-07T04:10:21.358Z,4.60
2018-04-07T04:12:49.871Z,4.00
2018-04-07T04:15:17.982Z,5.50
2018-04-07T04:17:45.731Z,6.13
2018-04-07T04:20:14.207Z,7.03
2018-04-07T04:22:42.428Z,6.40
2018-04-07T04:25:10.881Z,6.77
2018-04-07T04:27:38.638Z,5.70
2018-04-07T04:30:06.330Z,5.83
2018-04-07T04:32:34.028Z,5.90
2018-04-07T04:35:02.182Z,4.60
2018-04-07T04:37:29.881Z,4.20
2018-04-07T04:39:57.574Z,5.07
2018-04-07T04:42:25.266Z,5.60
2018-04-07T04:44:53.002Z,6.77
2018-04-07T04:47:21.114Z,6.00
2018-04-07T04:49:48.819Z,6.57
2018-04-07T04:52:18.317Z,6.90
2018-04-07T04:54:46.074Z,6.97
2018-04-07T04:57:14.546Z,5.97
2018-04-07T04:59:43.525Z,7.60
2018-04-07T05:02:11.224Z,7.13
2018-04-07T05:04:39.091Z,5.13
2018-04-07T05:07:06.871Z,5.10
2018-04-07T05:09:34.641Z,4.47
2018-04-07T05:12:02.361Z,5.27
2018-04-07T05:14:30.079Z,4.70
2018-04-07T05:16:57.831Z,4.10
2018-04-07T05:19:26.237Z,4.00
2018-04-07T05:21:54.002Z,3.27
2018-04-07T05:24:21.698Z,5.30
2018-04-07T05:26:49.434Z,5.90
2018-04-07T05:29:17.139Z,8.20
2018-04-07T05:31:44.882Z,6.73
2018-04-07T05:34:13.365Z,6.87
2018-04-07T05:36:41.186Z,6.23
2018-04-07T05:39:09.735Z,4.70
2018-04-07T05:41:37.445Z,4.87
2018-04-07T05:44:05.202Z,4.80
2018-04-07T05:46:33.032Z,4.83
2018-04-07T05:49:00.787Z,6.23
2018-04-07T05:51:28.693Z,6.63
2018-04-07T05:53:56.375Z,6.70
2018-04-07T05:56:24.854Z,5.40
2018-04-07T05:58:53.714Z,6.47
2018-04-07T06:01:22.975Z,8.97
2018-04-07T06:03:51.733Z,10.63
2018-04-07T06:06:20.454Z,10.77
2018-04-07T06:08:48.095Z,10.33
2018-04-07T06:11:16.826Z,8.90
2018-04-07T06:13:44.778Z,9.23
2018-04-07T06:16:13.423Z,8.60
2018-04-07T06:18:41.208Z,8.83
2018-04-07T06:21:09.912Z,8.67
2018-04-07T06:23:37.779Z,8.47
2018-04-07T06:26:05.527Z,9.80
2018-04-07T06:28:33.249Z,9.67
2018-04-07T06:31:01.129Z,10.40
2018-04-07T06:33:29.010Z,8.80
2018-04-07T06:35:57.609Z,9.23
2018-04-07T06:38:25.291Z,7.10
2018-04-07T06:40:53.805Z,6.60
2018-04-07T06:43:21.640Z,7.73
2018-04-07T06:45:50.134Z,6.97
2018-04-07T06:48:17.798Z,6.93
2018-04-07T06:50:45.727Z,8.93
2018-04-07T06:53:13.493Z,7.10
2018-04-07T06:55:42.600Z,9.47
2018-04-07T06:58:10.964Z,7.63
2018-04-07T07:00:39.675Z,10.53
2018-04-07T07:03:07.483Z,8.10
2018-04-07T07:05:38.732Z,8.10
2018-04-07T07:08:10.466Z,8.00
2018-04-07T07:10:38.310Z,7.27
2018-04-07T07:13:06.831Z,7.80
2018-04-07T07:15:35.325Z,5.90
2018-04-07T07:18:03.854Z,5.60
2018-04-07T07:20:31.571Z,5.47
2018-04-07T07:22:59.677Z,8.03
2018-04-07T07:25:27.388Z,6.40
2018-04-07T07:27:55.076Z,6.90
2018-04-07T07:30:23.651Z,9.20
2018-04-07T07:32:51.431Z,10.70
2018-04-07T07:35:19.865Z,9.13
2018-04-07T07:37:47.561Z,7.87
2018-04-07T07:40:15.275Z,9.77
2018-04-07T07:42:43.130Z,8.40
2018-04-07T07:45:11.000Z,9.40
2018-04-07T07:47:38.754Z,8.17
2018-04-07T07:50:07.233Z,6.57
2018-04-07T07:52:35.738Z,5.33
2018-04-07T07:55:03.445Z,6.33
2018-04-07T07:57:31.171Z,6.20
2018-04-07T07:59:59.472Z,7.07
2018-04-07T08:02:27.126Z,6.70
2018-04-07T08:04:54.814Z,7.50
2018-04-07T08:07:22.986Z,7.67
2018-04-07T08:09:51.242Z,8.03
2018-04-07T08:12:18.915Z,7.53
2018-04-07T08:14:46.694Z,7.27
2018-04-07T08:17:14.476Z,7.03
2018-04-07T08:19:42.219Z,7.90
2018-04-07T08:22:10.397Z,7.30
2018-04-07T08:24:38.106Z,7.50
2018-04-07T08:27:06.379Z,8.00
2018-04-07T08:29:34.079Z,7.77
2018-04-07T08:32:02.219Z,9.03
2018-04-07T08:34:29.957Z,7.80
2018-04-07T08:36:57.693Z,8.23
2018-04-07T08:39:25.496Z,7.47
2018-04-07T08:41:53.626Z,7.50
2018-04-07T08:44:21.286Z,8.23
2018-04-07T08:46:49.836Z,7.10
2018-04-07T08:49:17.700Z,7.17
2018-04-07T08:51:46.632Z,8.40
2018-04-07T08:54:15.127Z,7.27
2018-04-07T08:56:44.424Z,6.83
2018-04-07T08:59:12.884Z,6.23
2018-04-07T09:01:40.964Z,7.87
2018-04-07T09:04:08.645Z,5.97
2018-04-07T09:06:38.030Z,7.97
2018-04-07T09:09:05.818Z,7.50
2018-04-07T09:11:33.720Z,6.23
2018-04-07T09:14:01.682Z,7.83
2018-04-07T09:16:29.804Z,7.37
2018-04-07T09:18:58.302Z,6.97
2018-04-07T09:21:26.948Z,8.07
2018-04-07T09:23:54.602Z,7.20
2018-04-07T09:26:22.525Z,6.40
2018-04-07T09:28:51.010Z,7.37
2018-04-07T09:31:24.546Z,9.33
2018-04-07T09:33:52.242Z,9.67
2018-04-07T09:36:20.087Z,9.80
2018-04-07T09:38:48.037Z,10.57
2018-04-07T09:41:17.003Z,10.30
2018-04-07T09:43:45.647Z,10.47
2018-04-07T09:46:13.741Z,8.30
2018-04-07T09:48:41.649Z,8.27
2018-04-07T09:51:09.379Z,9.03
2018-04-07T09:53:37.125Z,9.33
2018-04-07T09:56:05.030Z,10.20
2018-04-07T09:58:32.903Z,8.90
2018-04-07T10:01:02.359Z,7.73
2018-04-07T10:03:30.620Z,8.60
2018-04-07T10:06:01.425Z,8.47
2018-04-07T10:08:31.132Z,9.47
2018-04-07T10:10:59.991Z,10.57
2018-04-07T10:13:27.719Z,11.63
2018-04-07T10:15:56.630Z,8.77
2018-04-07T10:18:24.423Z,10.07
2018-04-07T10:20:52.496Z,9.20
2018-04-07T10:23:28.014Z,8.83
2018-04-07T10:25:56.921Z,7.73
2018-04-07T10:28:25.787Z,9.70
2018-04-07T10:30:58.605Z,9.77
2018-04-07T10:33:27.405Z,10.63
2018-04-07T10:35:55.315Z,9.57
2018-04-07T10:38:24.409Z,8.60
2018-04-07T10:40:52.180Z,9.93
2018-04-07T10:43:21.322Z,9.00
2018-04-07T10:45:50.320Z,8.27
2018-04-07T10:48:19.363Z,6.30
2018-04-07T10:50:47.056Z,9.53
2018-04-07T10:53:14.850Z,7.53
2018-04-07T10:55:44.337Z,7.33
2018-04-07T10:58:12.791Z,8.33
2018-04-07T11:00:40.454Z,8.03
2018-04-07T11:03:08.343Z,7.50
2018-04-07T11:05:37.254Z,6.80
2018-04-07T11:08:05.786Z,7.47
2018-04-07T11:10:33.737Z,8.07
2018-04-07T11:13:01.506Z,8.13
2018-04-07T11:15:29.228Z,6.80
2018-04-07T11:17:56.978Z,8.53
2018-04-07T11:20:25.627Z,7.53
2018-04-07T11:22:53.293Z,6.53
2018-04-07T11:25:21.163Z,6.07
2018-04-07T11:27:48.892Z,5.97
2018-04-07T11:30:16.556Z,5.97
2018-04-07T11:32:44.330Z,7.37
2018-04-07T11:35:12.112Z,7.03
2018-04-07T11:37:40.112Z,6.53
2018-04-07T11:40:08.595Z,7.53
2018-04-07T11:42:36.378Z,7.60
2018-04-07T11:45:04.737Z,6.90
2018-04-07T11:47:33.448Z,10.03
2018-04-07T11:50:01.943Z,10.93
2018-04-07T11:52:29.604Z,9.07
2018-04-07T11:54:57.419Z,8.83
2018-04-07T11:57:26.073Z,8.43
2018-04-07T11:59:53.939Z,7.60
2018-04-07T12:02:22.949Z,8.03
2018-04-07T12:04:50.725Z,9.87
2018-04-07T12:07:18.502Z,9.97
2018-04-07T12:09:46.454Z,9.60
2018-04-07T12:12:15.006Z,10.93
2018-04-07T12:14:42.985Z,10.10
2018-04-07T12:17:10.760Z,11.00
2018-04-07T12:19:38.661Z,12.63
2018-04-07T12:22:06.614Z,13.30
2018-04-07T12:24:37.174Z,13.00
2018-04-07T12:27:04.996Z,11.93
2018-04-07T12:29:32.916Z,13.37
2018-04-07T12:32:02.702Z,15.10
2018-04-07T12:34:30.736Z,14.60
2018-04-07T12:36:58.488Z,16.57
2018-04-07T12:39:27.417Z,13.30
2018-04-07T12:41:55.453Z,14.87
2018-04-07T12:44:24.111Z,12.40
2018-04-07T12:46:52.988Z,12.10
2018-04-07T12:49:25.257Z,14.83
2018-04-07T12:51:54.135Z,16.00
2018-04-07T12:54:23.328Z,17.47
2018-04-07T12:56:51.661Z,15.67
2018-04-07T12:59:19.651Z,14.40
2018-04-07T13:01:47.539Z,13.97
2018-04-07T13:04:15.317Z,11.63
2018-04-07T13:06:43.242Z,13.07
2018-04-07T13:09:11.657Z,15.43
2018-04-07T13:11:39.419Z,15.83
2018-04-07T13:14:07.804Z,16.13
2018-04-07T13:16:35.734Z,16.60
2018-04-07T13:19:03.580Z,17.03
2018-04-07T13:21:32.118Z,16.53
2018-04-07T13:23:59.867Z,14.13
2018-04-07T13:26:27.656Z,14.57
2018-04-07T13:28:55.444Z,17.10
2018-04-07T13:31:23.774Z,16.67
2018-04-07T13:33:52.339Z,16.03
2018-04-07T13:36:20.160Z,15.53
2018-04-07T13:38:48.783Z,15.53
2018-04-07T13:41:20.631Z,15.07
2018-04-07T13:43:49.029Z,11.43
2018-04-07T13:46:17.577Z,14.33
2018-04-07T13:48:45.520Z,15.73
2018-04-07T13:51:14.944Z,16.20
2018-04-07T13:53:43.216Z,17.10
2018-04-07T13:56:11.718Z,16.03
2018-04-07T13:58:42.137Z,16.43
2018-04-07T14:01:10.443Z,16.50
2018-04-07T14:03:38.569Z,17.13
2018-04-07T14:06:08.194Z,18.00
2018-04-07T14:08:35.981Z,16.93
2018-04-07T14:11:04.066Z,14.53
2018-04-07T14:13:34.612Z,17.57
2018-04-07T14:16:02.711Z,17.63
2018-04-07T14:18:30.942Z,17.43
2018-04-07T14:20:59.838Z,17.33
2018-04-07T14:23:28.239Z,16.10
2018-04-07T14:25:56.218Z,17.03
2018-04-07T14:28:27.034Z,16.70
2018-04-07T14:30:56.417Z,17.40
2018-04-07T14:33:26.447Z,16.80
2018-04-07T14:35:55.590Z,16.30
2018-04-07T14:38:24.651Z,16.90
2018-04-07T14:40:53.930Z,18.73
2018-04-07T14:43:24.960Z,16.90
2018-04-07T14:45:54.048Z,16.53
2018-04-07T14:48:23.710Z,15.83
2018-04-07T14:50:53.681Z,16.17
2018-04-07T14:53:21.857Z,14.53
2018-04-07T14:55:51.254Z,15.33
2018-04-07T14:58:19.163Z,14.07
2018-04-07T15:00:48.134Z,15.37
2018-04-07T15:03:15.913Z,13.20
2018-04-07T15:05:44.639Z,12.53
2018-04-07T15:08:12.558Z,12.70
2018-04-07T15:10:43.099Z,11.70
2018-04-07T15:13:11.908Z,12.13
2018-04-07T15:15:40.070Z,13.43
2018-04-07T15:18:08.236Z,13.13
2018-04-07T15:20:36.210Z,13.60
2018-04-07T15:23:04.759Z,13.93
2018-04-07T15:25:32.589Z,13.87
2018-04-07T15:28:00.278Z,14.80
2018-04-07T15:30:29.404Z,15.17
2018-04-07T15:32:57.551Z,14.77
2018-04-07T15:35:27.446Z,13.77
2018-04-07T15:37:56.186Z,15.13
2018-04-07T15:40:25.692Z,13.00
2018-04-07T15:42:54.034Z,14.20
2018-04-07T15:45:24.174Z,13.47
2018-04-07T15:47:55.030Z,12.77
2018-04-07T15:50:24.957Z,11.97
2018-04-07T15:52:55.052Z,13.00
2018-04-07T15:55:25.500Z,12.37
2018-04-07T15:57:56.355Z,13.20
2018-04-07T16:00:25.455Z,12.57
2018-04-07T16:02:53.913Z,12.23
2018-04-07T16:05:22.587Z,11.90
2018-04-07T16:07:50.658Z,12.27
2018-04-07T16:10:18.713Z,10.90
2018-04-07T16:12:47.203Z,11.17
2018-04-07T16:15:14.960Z,11.83
2018-04-07T16:17:43.082Z,9.17
2018-04-07T16:20:11.113Z,10.60
2018-04-07T16:22:39.262Z,9.50
2018-04-07T16:25:07.504Z,8.23
2018-04-07T16:27:36.325Z,9.60
2018-04-07T16:30:04.795Z,9.50
2018-04-07T16:32:33.362Z,11.47
2018-04-07T16:35:01.299Z,12.13
2018-04-07T16:37:30.728Z,15.03
2018-04-07T16:40:01.007Z,17.70
2018-04-07T16:42:29.671Z,15.60
2018-04-07T16:44:57.429Z,15.73
2018-04-07T16:47:26.460Z,15.90
2018-04-07T16:49:54.399Z,14.40
2018-04-07T16:52:22.827Z,13.93
2018-04-07T16:54:51.351Z,11.93
2018-04-07T16:57:19.082Z,12.17
2018-04-07T16:59:47.809Z,11.97
2018-04-07T17:02:15.458Z,10.90
2018-04-07T17:04:43.198Z,10.37
2018-04-07T17:07:11.644Z,10.93
2018-04-07T17:09:39.353Z,10.77
2018-04-07T17:12:07.015Z,10.00
2018-04-07T17:14:35.289Z,10.07
2018-04-07T17:17:02.966Z,9.00
2018-04-07T17:19:30.643Z,9.37
2018-04-07T17:21:58.331Z,8.73
2018-04-07T17:24:25.990Z,8.70
2018-04-07T17:26:53.838Z,9.40
2018-04-07T17:29:21.508Z,8.63
2018-04-07T17:31:49.202Z,8.70
2018-04-07T17:34:16.918Z,9.53
2018-04-07T17:36:45.403Z,9.30
2018-04-07T17:39:13.889Z,8.30
2018-04-07T17:41:41.569Z,8.70
2018-04-07T17:44:10.283Z,8.50
2018-04-07T17:46:37.948Z,8.07
2018-04-07T17:49:06.335Z,8.17
2018-04-07T17:51:33.344Z,8.87
2018-04-07T17:54:02.279Z,9.03
2018-04-07T17:56:29.965Z,9.17
2018-04-07T17:58:57.626Z,9.30
2018-04-07T18:01:25.893Z,9.57
2018-04-07T18:03:53.561Z,9.40
2018-04-07T18:06:21.928Z,8.40
2018-04-07T18:08:49.607Z,9.37
2018-04-07T18:11:17.298Z,8.70
2018-04-07T18:13:44.995Z,7.73
2018-04-07T18:16:12.675Z,6.03
2018-04-07T18:18:40.354Z,6.80
2018-04-07T18:21:08.050Z,5.97
2018-04-07T18:23:35.695Z,5.43
2018-04-07T18:26:03.371Z,5.83
2018-04-07T18:28:31.053Z,5.60
2018-04-07T18:30:58.750Z,4.83
2018-04-07T18:33:26.452Z,5.10
2018-04-07T18:35:54.633Z,4.80
2018-04-07T18:38:22.334Z,5.20
2018-04-07T18:40:50.115Z,4.93
2018-04-07T18:43:18.123Z,4.77
2018-04-07T18:45:45.796Z,5.00
2018-04-07T18:48:13.474Z,5.60
2018-04-07T18:50:41.199Z,5.17
2018-04-07T18:53:08.992Z,5.70
2018-04-07T18:55:36.666Z,5.90
2018-04-07T18:58:04.597Z,6.87
2018-04-07T19:00:32.278Z,7.60
2018-04-07T19:03:00.040Z,8.03
2018-04-07T19:05:27.682Z,8.03
2018-04-07T19:07:56.203Z,8.53
2018-04-07T19:10:23.897Z,8.33
2018-04-07T19:12:51.619Z,7.67
2018-04-07T19:15:19.314Z,6.90
2018-04-07T19:17:47.020Z,6.70
2018-04-07T19:20:15.527Z,6.27
2018-04-07T19:22:43.243Z,5.77
2018-04-07T19:25:10.937Z,6.23
2018-04-07T19:27:39.339Z,5.90
2018-04-07T19:30:07.046Z,5.23
2018-04-07T19:32:34.737Z,5.00
2018-04-07T19:35:07.991Z,5.80
2018-04-07T19:37:35.669Z,5.00
2018-04-07T19:40:03.599Z,5.17
2018-04-07T19:42:31.277Z,4.37
2018-04-07T19:44:59.275Z,4.10
2018-04-07T19:47:26.967Z,3.63
2018-04-07T19:49:54.744Z,4.27
2018-04-07T19:52:22.479Z,4.10
2018-04-07T19:54:51.473Z,4.13
2018-04-07T19:57:19.363Z,4.00
2018-04-07T19:59:47.030Z,3.33
2018-04-07T20:02:14.775Z,3.87
2018-04-07T20:04:42.982Z,3.50
2018-04-07T20:07:10.630Z,2.90
2018-04-07T20:09:38.272Z,2.43
2018-04-07T20:12:06.336Z,3.20
2018-04-07T20:14:34.014Z,2.50
2018-04-07T20:17:01.772Z,3.03
2018-04-07T20:19:29.706Z,3.43
2018-04-07T20:21:58.310Z,2.70
2018-04-07T20:24:25.951Z,3.00
2018-04-07T20:26:54.172Z,2.70
2018-04-07T20:29:21.889Z,3.17
2018-04-07T20:31:49.797Z,3.10
2018-04-07T20:34:17.480Z,4.07
2018-04-07T20:36:45.145Z,3.20
2018-04-07T20:39:12.883Z,3.30
2018-04-07T20:41:40.601Z,3.90
2018-04-07T20:44:08.330Z,3.50
2018-04-07T20:46:36.383Z,4.10
2018-04-07T20:49:04.842Z,3.10
2018-04-07T20:51:32.506Z,3.90
2018-04-07T20:54:00.170Z,3.63
2018-04-07T20:56:29.630Z,3.67
2018-04-07T20:58:57.313Z,3.83
2018-04-07T21:01:25.010Z,4.17
2018-04-07T21:03:52.714Z,3.93
2018-04-07T21:06:21.107Z,4.03
2018-04-07T21:08:51.119Z,4.93
2018-04-07T21:11:18.806Z,4.70
2018-04-07T21:13:46.743Z,4.27
2018-04-07T21:16:14.951Z,3.93
2018-04-07T21:18:42.908Z,4.20
2018-04-07T21:21:10.725Z,4.33
2018-04-07T21:23:38.424Z,4.63
2018-04-07T21:26:06.930Z,4.60
2018-04-07T21:28:34.846Z,5.03
2018-04-07T21:31:02.797Z,4.73
2018-04-07T21:33:30.677Z,3.90
2018-04-07T21:35:59.392Z,3.70
2018-04-07T21:38:27.427Z,4.33
2018-04-07T21:40:55.208Z,4.23
2018-04-07T21:43:22.917Z,4.67
2018-04-07T21:45:50.682Z,4.00
2018-04-07T21:48:18.389Z,4.37
2018-04-07T21:50:46.150Z,4.40
2018-04-07T21:53:15.239Z,4.50
2018-04-07T21:55:43.013Z,5.47
2018-04-07T21:58:10.695Z,4.90
2018-04-07T22:00:38.741Z,5.17
2018-04-07T22:03:06.574Z,5.17
2018-04-07T22:05:35.065Z,5.97
2018-04-07T22:08:04.002Z,4.90
2018-04-07T22:10:31.720Z,4.97
2018-04-07T22:13:02.137Z,5.17
2018-04-07T22:15:30.862Z,4.50
2018-04-07T22:17:58.585Z,4.53
2018-04-07T22:20:26.757Z,5.37
2018-04-07T22:22:54.569Z,5.07
2018-04-07T22:25:22.286Z,4.23
2018-04-07T22:27:50.459Z,4.50
2018-04-07T22:30:18.597Z,4.40
2018-04-07T22:32:46.354Z,4.50
2018-04-07T22:35:14.080Z,5.23
2018-04-07T22:37:41.791Z,5.37
2018-04-07T22:40:09.875Z,5.07
2018-04-07T22:42:40.067Z,5.00
2018-04-07T22:45:07.807Z,5.27
2018-04-07T22:47:36.249Z,5.07
2018-04-07T22:50:04.378Z,5.23
2018-04-07T22:52:32.083Z,4.97
2018-04-07T22:55:00.281Z,5.43
2018-04-07T22:57:28.977Z,5.47
2018-04-07T22:59:57.994Z,4.90
2018-04-07T23:02:25.715Z,5.53
2018-04-07T23:04:57.664Z,5.73
2018-04-07T23:07:26.090Z,5.67
2018-04-07T23:09:54.572Z,5.97
2018-04-07T23:12:22.954Z,5.70
2018-04-07T23:14:50.734Z,6.07
2018-04-07T23:17:18.431Z,6.03
2018-04-07T23:19:46.275Z,5.77
2018-04-07T23:22:14.500Z,6.47
2018-04-07T23:24:43.481Z,6.50
2018-04-07T23:27:11.161Z,6.23
2018-04-07T23:29:38.865Z,6.67
2018-04-07T23:32:06.599Z,6.23
2018-04-07T23:34:34.302Z,6.43
2018-04-07T23:37:01.968Z,6.60
2018-04-07T23:39:29.904Z,6.70
2018-04-07T23:41:57.649Z,6.27
2018-04-07T23:44:25.291Z,6.90
2018-04-07T23:46:53.880Z,6.83
2018-04-07T23:49:21.591Z,7.70
2018-04-07T23:51:50.122Z,7.77
2018-04-07T23:54:19.885Z,7.47
2018-04-07T23:56:49.538Z,7.03
2018-04-07T23:59:17.250Z,7.83
